Letham, United Kingdom
Current Conditions -  °F | °C
As of 12:50 PM on Saturday 25 Oct 2014 (Local Time) from EGPN Reporting Station
Broken Clouds Broken Clouds  
Wind Chill: 13°   Ceiling: 2500
Heat Index: 13°   Visibility: 6mi
Dew Point: 10°   Wind: 25mph
Humidity: 82%   Direction: 230°SW
Pressure: 29.62"   Gusts: NA
Location:  56.62°N, 2.77°W
Report Text: EGPN 251150Z 23022KT 9999 FEW015 BKN025 13/10 Q1003
Loading
Personal Weather Stations






























Interactive Weather Map
Tropical Storm Tracking
New forecast layout! Learn more

10-Day Weather Forecast

Advertisements
Track Severe Weather on mobile